sensor_id;sensor_type;location;lat;lon;timestamp;temperature;humidity
1137;DHT22;557;48.466;7.950;2023-03-01T00:01:03;-0.40;99.90
1137;DHT22;557;48.466;7.950;2023-03-01T00:03:51;-0.60;1.00
1137;DHT22;557;48.466;7.950;2023-03-01T00:06:39;-0.80;99.90
1137;DHT22;557;48.466;7.950;2023-03-01T00:09:27;-0.90;99.90
1137;DHT22;557;48.466;7.950;2023-03-01T00:12:15;-1.00;99.90
1137;DHT22;557;48.466;7.950;2023-03-01T00:15:02;-1.10;99.90
1137;DHT22;557;48.466;7.950;2023-03-01T00:17:51;-1.20;1.00
1137;DHT22;557;48.466;7.950;2023-03-01T00:20:38;-1.30;1.00
1137;DHT22;557;48.466;7.950;2023-03-01T00:23:25;-1.40;1.00
1137;DHT22;557;48.466;7.950;2023-03-01T00:26:15;-1.50;1.00
1137;DHT22;557;48.466;7.950;2023-03-01T00:29:03;-1.50;1.00
1137;DHT22;557;48.466;7.950;2023-03-01T00:31:50;-1.50;1.00
1137;DHT22;557;48.466;7.950;2023-03-01T00:34:38;-1.50;1.00
1137;DHT22;557;48.466;7.950;2023-03-01T00:37:25;-1.60;1.00
1137;DHT22;557;48.466;7.950;2023-03-01T00:40:13;-1.70;1.00
1137;DHT22;557;48.466;7.950;2023-03-01T00:43:03;-1.70;1.00
1137;DHT22;557;48.466;7.950;2023-03-01T00:45:51;-1.70;1.00
1137;DHT22;557;48.466;7.950;2023-03-01T00:48:39;-1.70;1.00
1137;DHT22;557;48.466;7.950;2023-03-01T00:51:27;-1.70;1.00
1137;DHT22;557;48.466;7.950;2023-03-01T00:54:15;-1.70;1.00
1137;DHT22;557;48.466;7.950;2023-03-01T00:57:02;-1.80;1.00
1137;DHT22;557;48.466;7.950;2023-03-01T00:59:51;-1.80;1.00
1137;DHT22;557;48.466;7.950;2023-03-01T01:02:39;-1.70;1.00
1137;DHT22;557;48.466;7.950;2023-03-01T01:05:26;-1.70;1.00
1137;DHT22;557;48.466;7.950;2023-03-01T01:08:13;-1.70;1.00
1137;DHT22;557;48.466;7.950;2023-03-01T01:11:01;-1.70;1.00
1137;DHT22;557;48.466;7.950;2023-03-01T01:13:48;-1.70;1.00
1137;DHT22;557;48.466;7.950;2023-03-01T01:16:37;-1.80;1.00
1137;DHT22;557;48.466;7.950;2023-03-01T01:19:25;-1.80;1.00
1137;DHT22;557;48.466;7.950;2023-03-01T01:22:13;-1.80;1.00
1137;DHT22;557;48.466;7.950;2023-03-01T01:25:00;-1.70;1.00
1137;DHT22;557;48.466;7.950;2023-03-01T01:27:47;-1.80;1.00
1137;DHT22;557;48.466;7.950;2023-03-01T01:30:35;-1.90;1.00
1137;DHT22;557;48.466;7.950;2023-03-01T01:33:23;-1.90;1.00
1137;DHT22;557;48.466;7.950;2023-03-01T01:36:11;-2.00;1.00
1137;DHT22;557;48.466;7.950;2023-03-01T01:38:58;-2.00;1.00
1137;DHT22;557;48.466;7.950;2023-03-01T01:41:46;-1.90;1.00
1137;DHT22;557;48.466;7.950;2023-03-01T01:44:34;-1.60;1.00
1137;DHT22;557;48.466;7.950;2023-03-01T01:47:23;-1.50;1.00
1137;DHT22;557;48.466;7.950;2023-03-01T01:50:17;-1.30;1.00
1137;DHT22;557;48.466;7.950;2023-03-01T01:53:08;-1.30;1.00
1137;DHT22;557;48.466;7.950;2023-03-01T01:55:58;-1.10;1.00
1137;DHT22;557;48.466;7.950;2023-03-01T01:58:47;-1.10;1.00
1137;DHT22;557;48.466;7.950;2023-03-01T02:01:35;-1.00;1.00
1137;DHT22;557;48.466;7.950;2023-03-01T02:04:23;-1.00;1.00
1137;DHT22;557;48.466;7.950;2023-03-01T02:07:15;-0.90;1.00
1137;DHT22;557;48.466;7.950;2023-03-01T02:10:03;-0.90;1.00
1137;DHT22;557;48.466;7.950;2023-03-01T02:12:52;-0.90;1.00
1137;DHT22;557;48.466;7.950;2023-03-01T02:15:40;-0.90;1.00
1137;DHT22;557;48.466;7.950;2023-03-01T02:18:30;-0.80;1.00
1137;DHT22;557;48.466;7.950;2023-03-01T02:21:28;-0.80;1.00
1137;DHT22;557;48.466;7.950;2023-03-01T02:24:26;-0.80;1.00
1137;DHT22;557;48.466;7.950;2023-03-01T02:27:21;-0.80;1.00
1137;DHT22;557;48.466;7.950;2023-03-01T02:30:12;-0.80;1.00
1137;DHT22;557;48.466;7.950;2023-03-01T02:33:00;-0.80;1.00
1137;DHT22;557;48.466;7.950;2023-03-01T02:35:48;-0.90;99.90
1137;DHT22;557;48.466;7.950;2023-03-01T02:38:36;-1.00;1.00
1137;DHT22;557;48.466;7.950;2023-03-01T02:41:25;-1.10;1.00
1137;DHT22;557;48.466;7.950;2023-03-01T02:44:13;-1.10;1.00
1137;DHT22;557;48.466;7.950;2023-03-01T02:47:03;-1.10;1.00
1137;DHT22;557;48.466;7.950;2023-03-01T02:49:52;-1.20;1.00
1137;DHT22;557;48.466;7.950;2023-03-01T02:52:44;-1.00;1.00
1137;DHT22;557;48.466;7.950;2023-03-01T02:55:33;-1.10;1.00
1137;DHT22;557;48.466;7.950;2023-03-01T02:58:20;-1.00;1.00
1137;DHT22;557;48.466;7.950;2023-03-01T03:01:08;-1.00;1.00
1137;DHT22;557;48.466;7.950;2023-03-01T03:03:57;-1.00;1.00
1137;DHT22;557;48.466;7.950;2023-03-01T03:06:44;-1.00;1.00
1137;DHT22;557;48.466;7.950;2023-03-01T03:09:32;-1.00;1.00
1137;DHT22;557;48.466;7.950;2023-03-01T03:12:19;-1.00;1.00
1137;DHT22;557;48.466;7.950;2023-03-01T03:15:09;-1.00;1.00
1137;DHT22;557;48.466;7.950;2023-03-01T03:17:59;-1.10;1.00
1137;DHT22;557;48.466;7.950;2023-03-01T03:20:47;-1.10;1.00
1137;DHT22;557;48.466;7.950;2023-03-01T03:23:39;-1.00;1.00
1137;DHT22;557;48.466;7.950;2023-03-01T03:26:26;-1.00;1.00
1137;DHT22;557;48.466;7.950;2023-03-01T03:29:13;-1.10;1.00
1137;DHT22;557;48.466;7.950;2023-03-01T03:32:00;-1.10;1.00
1137;DHT22;557;48.466;7.950;2023-03-01T03:34:49;-1.20;1.00
1137;DHT22;557;48.466;7.950;2023-03-01T03:37:38;-1.50;1.00
1137;DHT22;557;48.466;7.950;2023-03-01T03:40:44;-1.50;1.00
1137;DHT22;557;48.466;7.950;2023-03-01T03:43:34;-1.60;1.00
1137;DHT22;557;48.466;7.950;2023-03-01T03:46:21;-1.50;1.00
1137;DHT22;557;48.466;7.950;2023-03-01T03:49:08;-1.40;1.00
1137;DHT22;557;48.466;7.950;2023-03-01T03:51:56;-1.40;1.00
1137;DHT22;557;48.466;7.950;2023-03-01T03:54:44;-1.40;1.00
1137;DHT22;557;48.466;7.950;2023-03-01T03:57:32;-1.30;1.00
1137;DHT22;557;48.466;7.950;2023-03-01T04:00:20;-1.40;1.00
1137;DHT22;557;48.466;7.950;2023-03-01T04:03:11;-1.40;1.00
1137;DHT22;557;48.466;7.950;2023-03-01T04:06:00;-1.40;1.00
1137;DHT22;557;48.466;7.950;2023-03-01T04:08:47;-1.50;1.00
1137;DHT22;557;48.466;7.950;2023-03-01T04:11:38;-1.50;1.00
1137;DHT22;557;48.466;7.950;2023-03-01T04:14:25;-1.60;1.00
1137;DHT22;557;48.466;7.950;2023-03-01T04:17:12;-1.60;1.00
1137;DHT22;557;48.466;7.950;2023-03-01T04:20:00;-1.70;1.00
1137;DHT22;557;48.466;7.950;2023-03-01T04:22:52;-1.70;1.00
1137;DHT22;557;48.466;7.950;2023-03-01T04:25:47;-1.80;1.00
1137;DHT22;557;48.466;7.950;2023-03-01T04:28:41;-1.90;1.00
1137;DHT22;557;48.466;7.950;2023-03-01T04:31:31;-2.00;1.00
1137;DHT22;557;48.466;7.950;2023-03-01T04:34:18;-2.10;1.00
1137;DHT22;557;48.466;7.950;2023-03-01T04:37:05;-2.30;1.00
1137;DHT22;557;48.466;7.950;2023-03-01T04:39:53;-2.50;1.00
1137;DHT22;557;48.466;7.950;2023-03-01T04:42:40;-2.50;1.00
1137;DHT22;557;48.466;7.950;2023-03-01T04:45:30;-2.40;1.00
1137;DHT22;557;48.466;7.950;2023-03-01T04:48:18;-2.40;1.00
1137;DHT22;557;48.466;7.950;2023-03-01T04:51:06;-2.40;1.00
1137;DHT22;557;48.466;7.950;2023-03-01T04:53:53;-2.30;1.00
1137;DHT22;557;48.466;7.950;2023-03-01T04:56:41;-2.20;1.00
1137;DHT22;557;48.466;7.950;2023-03-01T04:59:28;-2.10;1.00
1137;DHT22;557;48.466;7.950;2023-03-01T05:02:17;-2.10;1.00
1137;DHT22;557;48.466;7.950;2023-03-01T05:05:05;-2.00;1.00
1137;DHT22;557;48.466;7.950;2023-03-01T05:07:55;-1.90;1.00
1137;DHT22;557;48.466;7.950;2023-03-01T05:10:44;-1.90;1.00
1137;DHT22;557;48.466;7.950;2023-03-01T05:13:32;-1.90;1.00
1137;DHT22;557;48.466;7.950;2023-03-01T05:16:20;-1.70;1.00
1137;DHT22;557;48.466;7.950;2023-03-01T05:19:09;-1.70;1.00
1137;DHT22;557;48.466;7.950;2023-03-01T05:22:01;-1.70;1.00
1137;DHT22;557;48.466;7.950;2023-03-01T05:24:49;-1.70;1.00
1137;DHT22;557;48.466;7.950;2023-03-01T05:27:37;-1.60;1.00
1137;DHT22;557;48.466;7.950;2023-03-01T05:30:24;-1.60;1.00
1137;DHT22;557;48.466;7.950;2023-03-01T05:33:13;-1.60;1.00
1137;DHT22;557;48.466;7.950;2023-03-01T05:36:01;-1.50;1.00
1137;DHT22;557;48.466;7.950;2023-03-01T05:38:49;-1.50;1.00
1137;DHT22;557;48.466;7.950;2023-03-01T05:41:37;-1.50;1.00
1137;DHT22;557;48.466;7.950;2023-03-01T05:44:25;-1.40;1.00
1137;DHT22;557;48.466;7.950;2023-03-01T05:47:13;-1.40;1.00
1137;DHT22;557;48.466;7.950;2023-03-01T05:50:00;-1.40;1.00
1137;DHT22;557;48.466;7.950;2023-03-01T05:52:50;-1.40;1.00
1137;DHT22;557;48.466;7.950;2023-03-01T05:55:38;-1.30;1.00
1137;DHT22;557;48.466;7.950;2023-03-01T05:58:26;-1.30;1.00
1137;DHT22;557;48.466;7.950;2023-03-01T06:01:13;-1.20;1.00
1137;DHT22;557;48.466;7.950;2023-03-01T06:04:00;-1.10;1.00
1137;DHT22;557;48.466;7.950;2023-03-01T06:06:48;-1.20;1.00
1137;DHT22;557;48.466;7.950;2023-03-01T06:09:37;-1.20;1.00
1137;DHT22;557;48.466;7.950;2023-03-01T06:12:25;-1.20;1.00
1137;DHT22;557;48.466;7.950;2023-03-01T06:15:13;-1.10;1.00
1137;DHT22;557;48.466;7.950;2023-03-01T06:18:01;-1.10;1.00
1137;DHT22;557;48.466;7.950;2023-03-01T06:20:53;-0.90;1.00
1137;DHT22;557;48.466;7.950;2023-03-01T06:23:40;-1.00;1.00
1137;DHT22;557;48.466;7.950;2023-03-01T06:26:29;-1.00;1.00
1137;DHT22;557;48.466;7.950;2023-03-01T06:29:16;-1.00;1.00
1137;DHT22;557;48.466;7.950;2023-03-01T06:32:04;-1.00;1.00
1137;DHT22;557;48.466;7.950;2023-03-01T06:34:51;-1.00;1.00
1137;DHT22;557;48.466;7.950;2023-03-01T06:37:39;-1.00;1.00
1137;DHT22;557;48.466;7.950;2023-03-01T06:40:26;-1.00;1.00
1137;DHT22;557;48.466;7.950;2023-03-01T06:43:15;-0.90;1.00
1137;DHT22;557;48.466;7.950;2023-03-01T06:46:04;-0.90;1.00
1137;DHT22;557;48.466;7.950;2023-03-01T06:48:52;-0.90;1.00
1137;DHT22;557;48.466;7.950;2023-03-01T06:51:39;-0.90;1.00
1137;DHT22;557;48.466;7.950;2023-03-01T06:54:27;-0.90;1.00
1137;DHT22;557;48.466;7.950;2023-03-01T06:57:14;-0.90;1.00
1137;DHT22;557;48.466;7.950;2023-03-01T07:00:03;-0.80;1.00
1137;DHT22;557;48.466;7.950;2023-03-01T07:02:51;-0.80;1.00
1137;DHT22;557;48.466;7.950;2023-03-01T07:05:39;-0.80;1.00
1137;DHT22;557;48.466;7.950;2023-03-01T07:08:26;-0.70;1.00
1137;DHT22;557;48.466;7.950;2023-03-01T07:11:14;-0.70;1.00
1137;DHT22;557;48.466;7.950;2023-03-01T07:14:02;-0.70;1.00
1137;DHT22;557;48.466;7.950;2023-03-01T07:16:50;-0.70;1.00
1137;DHT22;557;48.466;7.950;2023-03-01T07:19:38;-0.60;99.90
1137;DHT22;557;48.466;7.950;2023-03-01T07:22:25;-0.60;99.90
1137;DHT22;557;48.466;7.950;2023-03-01T07:25:12;-0.60;99.90
1137;DHT22;557;48.466;7.950;2023-03-01T07:28:00;-0.50;99.90
1137;DHT22;557;48.466;7.950;2023-03-01T07:30:47;-0.60;99.90
1137;DHT22;557;48.466;7.950;2023-03-01T07:33:36;-0.50;99.90
1137;DHT22;557;48.466;7.950;2023-03-01T07:36:24;-0.40;99.90
1137;DHT22;557;48.466;7.950;2023-03-01T07:39:11;-0.30;99.90
1137;DHT22;557;48.466;7.950;2023-03-01T07:41:59;-0.30;99.90
1137;DHT22;557;48.466;7.950;2023-03-01T07:44:46;-0.30;99.90
1137;DHT22;557;48.466;7.950;2023-03-01T07:47:34;-0.30;99.90
1137;DHT22;557;48.466;7.950;2023-03-01T07:50:22;-0.30;99.90
1137;DHT22;557;48.466;7.950;2023-03-01T07:53:10;-0.20;99.90
1137;DHT22;557;48.466;7.950;2023-03-01T07:56:02;-0.20;99.90
1137;DHT22;557;48.466;7.950;2023-03-01T07:58:49;-0.20;99.90
1137;DHT22;557;48.466;7.950;2023-03-01T08:01:37;-0.10;12.30
1137;DHT22;557;48.466;7.950;2023-03-01T08:04:24;0.10;1.00
1137;DHT22;557;48.466;7.950;2023-03-01T08:07:14;0.10;1.00
1137;DHT22;557;48.466;7.950;2023-03-01T08:10:01;0.20;99.90
1137;DHT22;557;48.466;7.950;2023-03-01T08:12:51;0.10;99.90
1137;DHT22;557;48.466;7.950;2023-03-01T08:15:38;0.20;1.00
1137;DHT22;557;48.466;7.950;2023-03-01T08:18:26;0.20;99.90
1137;DHT22;557;48.466;7.950;2023-03-01T08:21:15;0.20;1.00
1137;DHT22;557;48.466;7.950;2023-03-01T08:24:04;0.40;99.90
1137;DHT22;557;48.466;7.950;2023-03-01T08:26:52;0.60;1.00
1137;DHT22;557;48.466;7.950;2023-03-01T08:29:40;0.70;1.00
1137;DHT22;557;48.466;7.950;2023-03-01T08:32:27;0.80;99.90
1137;DHT22;557;48.466;7.950;2023-03-01T08:35:15;0.90;1.00
1137;DHT22;557;48.466;7.950;2023-03-01T08:38:05;1.20;99.90
1137;DHT22;557;48.466;7.950;2023-03-01T08:40:53;1.20;1.00
1137;DHT22;557;48.466;7.950;2023-03-01T08:43:41;1.40;1.00
1137;DHT22;557;48.466;7.950;2023-03-01T08:46:30;1.50;23.20
1137;DHT22;557;48.466;7.950;2023-03-01T08:49:19;1.80;99.90
1137;DHT22;557;48.466;7.950;2023-03-01T08:52:07;2.10;99.90
1137;DHT22;557;48.466;7.950;2023-03-01T08:54:54;2.30;99.90
1137;DHT22;557;48.466;7.950;2023-03-01T08:57:43;2.50;99.90
1137;DHT22;557;48.466;7.950;2023-03-01T09:00:31;2.50;99.90
1137;DHT22;557;48.466;7.950;2023-03-01T09:03:20;2.40;62.00
1137;DHT22;557;48.466;7.950;2023-03-01T09:06:09;2.40;99.90
1137;DHT22;557;48.466;7.950;2023-03-01T09:08:57;2.50;99.90
1137;DHT22;557;48.466;7.950;2023-03-01T09:11:45;2.50;99.90
1137;DHT22;557;48.466;7.950;2023-03-01T09:14:34;2.40;99.90
1137;DHT22;557;48.466;7.950;2023-03-01T09:17:23;2.50;99.90
1137;DHT22;557;48.466;7.950;2023-03-01T09:20:11;2.70;99.90
1137;DHT22;557;48.466;7.950;2023-03-01T09:22:58;2.80;93.90
1137;DHT22;557;48.466;7.950;2023-03-01T09:25:45;2.90;60.80
1137;DHT22;557;48.466;7.950;2023-03-01T09:28:33;3.10;27.10
1137;DHT22;557;48.466;7.950;2023-03-01T09:31:22;3.20;1.00
1137;DHT22;557;48.466;7.950;2023-03-01T09:34:10;3.30;1.00
1137;DHT22;557;48.466;7.950;2023-03-01T09:36:59;3.40;1.00
1137;DHT22;557;48.466;7.950;2023-03-01T09:39:48;3.60;1.00
1137;DHT22;557;48.466;7.950;2023-03-01T09:42:36;3.60;1.00
1137;DHT22;557;48.466;7.950;2023-03-01T09:45:34;3.70;1.00
1137;DHT22;557;48.466;7.950;2023-03-01T09:48:26;3.80;1.00
1137;DHT22;557;48.466;7.950;2023-03-01T09:51:18;3.90;99.90
1137;DHT22;557;48.466;7.950;2023-03-01T09:54:08;4.10;99.90
1137;DHT22;557;48.466;7.950;2023-03-01T09:57:05;4.20;99.90
1137;DHT22;557;48.466;7.950;2023-03-01T10:00:29;4.50;99.90
1137;DHT22;557;48.466;7.950;2023-03-01T10:03:24;4.70;99.90
1137;DHT22;557;48.466;7.950;2023-03-01T10:06:15;5.10;99.90
1137;DHT22;557;48.466;7.950;2023-03-01T10:09:09;5.40;99.90
1137;DHT22;557;48.466;7.950;2023-03-01T10:11:59;5.60;99.90
1137;DHT22;557;48.466;7.950;2023-03-01T10:14:53;5.60;99.90
1137;DHT22;557;48.466;7.950;2023-03-01T10:17:46;5.60;99.90
1137;DHT22;557;48.466;7.950;2023-03-01T10:20:42;5.80;99.90
1137;DHT22;557;48.466;7.950;2023-03-01T10:23:34;5.90;99.90
1137;DHT22;557;48.466;7.950;2023-03-01T10:26:34;6.00;99.90
1137;DHT22;557;48.466;7.950;2023-03-01T10:29:29;6.30;99.90
1137;DHT22;557;48.466;7.950;2023-03-01T10:32:18;6.60;99.90
1137;DHT22;557;48.466;7.950;2023-03-01T10:35:16;6.80;99.90
1137;DHT22;557;48.466;7.950;2023-03-01T10:38:07;7.00;99.90
1137;DHT22;557;48.466;7.950;2023-03-01T10:40:57;7.30;99.90
1137;DHT22;557;48.466;7.950;2023-03-01T10:43:47;7.40;99.90
1137;DHT22;557;48.466;7.950;2023-03-01T10:46:36;7.60;99.90
1137;DHT22;557;48.466;7.950;2023-03-01T10:49:23;8.00;99.90
1137;DHT22;557;48.466;7.950;2023-03-01T10:52:18;8.40;99.90
1137;DHT22;557;48.466;7.950;2023-03-01T10:55:23;8.50;99.90
1137;DHT22;557;48.466;7.950;2023-03-01T10:58:19;8.50;99.90
1137;DHT22;557;48.466;7.950;2023-03-01T11:01:25;8.50;99.90
1137;DHT22;557;48.466;7.950;2023-03-01T11:04:13;8.50;99.90
1137;DHT22;557;48.466;7.950;2023-03-01T11:07:02;8.70;99.90
1137;DHT22;557;48.466;7.950;2023-03-01T11:09:50;8.90;99.90
1137;DHT22;557;48.466;7.950;2023-03-01T11:12:38;9.00;99.90
1137;DHT22;557;48.466;7.950;2023-03-01T11:15:28;9.00;97.30
1137;DHT22;557;48.466;7.950;2023-03-01T11:18:20;9.00;98.60
1137;DHT22;557;48.466;7.950;2023-03-01T11:21:08;9.40;96.00
1137;DHT22;557;48.466;7.950;2023-03-01T11:23:57;9.60;96.00
1137;DHT22;557;48.466;7.950;2023-03-01T11:26:47;9.90;94.30
1137;DHT22;557;48.466;7.950;2023-03-01T11:29:40;10.20;87.90
1137;DHT22;557;48.466;7.950;2023-03-01T11:32:33;10.50;87.90
1137;DHT22;557;48.466;7.950;2023-03-01T11:35:25;10.60;83.70
1137;DHT22;557;48.466;7.950;2023-03-01T11:38:19;10.60;71.50
1137;DHT22;557;48.466;7.950;2023-03-01T11:41:11;10.50;67.60
1137;DHT22;557;48.466;7.950;2023-03-01T11:44:02;10.50;65.00
1137;DHT22;557;48.466;7.950;2023-03-01T11:47:06;10.70;63.40
1137;DHT22;557;48.466;7.950;2023-03-01T11:53:21;10.50;55.70
1137;DHT22;557;48.466;7.950;2023-03-01T11:56:19;10.70;52.80
1137;DHT22;557;48.466;7.950;2023-03-01T11:59:30;10.60;50.00
1137;DHT22;557;48.466;7.950;2023-03-01T12:06:28;10.70;48.90
1137;DHT22;557;48.466;7.950;2023-03-01T12:09:49;11.00;47.20
1137;DHT22;557;48.466;7.950;2023-03-01T12:12:51;11.20;47.20
1137;DHT22;557;48.466;7.950;2023-03-01T12:19:06;11.30;40.80
1137;DHT22;557;48.466;7.950;2023-03-01T12:22:13;11.30;37.00
1137;DHT22;557;48.466;7.950;2023-03-01T12:25:24;11.10;40.60
1137;DHT22;557;48.466;7.950;2023-03-01T12:31:48;11.80;37.20
1137;DHT22;557;48.466;7.950;2023-03-01T12:34:59;12.10;37.00
1137;DHT22;557;48.466;7.950;2023-03-01T12:37:54;12.50;41.30
1137;DHT22;557;48.466;7.950;2023-03-01T12:40:55;12.70;34.70
1137;DHT22;557;48.466;7.950;2023-03-01T12:43:57;12.60;29.00
1137;DHT22;557;48.466;7.950;2023-03-01T12:46:56;12.60;27.10
1137;DHT22;557;48.466;7.950;2023-03-01T12:49:54;12.70;27.30
1137;DHT22;557;48.466;7.950;2023-03-01T12:52:47;13.00;27.00
1137;DHT22;557;48.466;7.950;2023-03-01T12:55:38;13.10;26.00
1137;DHT22;557;48.466;7.950;2023-03-01T12:58:31;13.20;25.10
1137;DHT22;557;48.466;7.950;2023-03-01T13:01:25;13.70;26.00
1137;DHT22;557;48.466;7.950;2023-03-01T13:04:20;13.90;23.80
1137;DHT22;557;48.466;7.950;2023-03-01T13:07:20;13.80;21.90
1137;DHT22;557;48.466;7.950;2023-03-01T13:10:20;14.00;22.40
1137;DHT22;557;48.466;7.950;2023-03-01T13:13:19;14.00;19.90
1137;DHT22;557;48.466;7.950;2023-03-01T13:16:42;14.20;19.30
1137;DHT22;557;48.466;7.950;2023-03-01T13:19:31;14.40;17.70
1137;DHT22;557;48.466;7.950;2023-03-01T13:22:30;14.10;14.50
1137;DHT22;557;48.466;7.950;2023-03-01T13:25:21;14.00;12.90
1137;DHT22;557;48.466;7.950;2023-03-01T13:31:57;13.80;10.10
1137;DHT22;557;48.466;7.950;2023-03-01T13:34:48;13.60;8.20
1137;DHT22;557;48.466;7.950;2023-03-01T13:37:37;13.50;6.60
1137;DHT22;557;48.466;7.950;2023-03-01T13:40:59;13.50;5.90
1137;DHT22;557;48.466;7.950;2023-03-01T13:43:46;13.80;6.50
1137;DHT22;557;48.466;7.950;2023-03-01T13:46:35;14.10;7.20
1137;DHT22;557;48.466;7.950;2023-03-01T13:49:26;14.30;6.80
1137;DHT22;557;48.466;7.950;2023-03-01T13:52:32;14.40;6.30
1137;DHT22;557;48.466;7.950;2023-03-01T13:55:24;14.70;6.30
1137;DHT22;557;48.466;7.950;2023-03-01T13:58:22;14.80;5.00
1137;DHT22;557;48.466;7.950;2023-03-01T14:01:21;14.90;12.30
1137;DHT22;557;48.466;7.950;2023-03-01T14:04:21;15.20;4.30
1137;DHT22;557;48.466;7.950;2023-03-01T14:07:10;15.30;3.60
1137;DHT22;557;48.466;7.950;2023-03-01T14:10:01;15.20;2.50
1137;DHT22;557;48.466;7.950;2023-03-01T14:12:52;15.40;2.00
1137;DHT22;557;48.466;7.950;2023-03-01T14:15:49;15.50;1.40
1137;DHT22;557;48.466;7.950;2023-03-01T14:18:47;15.30;1.00
1137;DHT22;557;48.466;7.950;2023-03-01T14:21:39;15.20;1.00
1137;DHT22;557;48.466;7.950;2023-03-01T14:24:27;15.30;1.00
1137;DHT22;557;48.466;7.950;2023-03-01T14:27:15;15.00;1.00
1137;DHT22;557;48.466;7.950;2023-03-01T14:30:10;14.90;1.00
1137;DHT22;557;48.466;7.950;2023-03-01T14:33:02;14.80;1.00
1137;DHT22;557;48.466;7.950;2023-03-01T14:35:56;14.60;1.00
1137;DHT22;557;48.466;7.950;2023-03-01T14:38:45;14.40;1.00
1137;DHT22;557;48.466;7.950;2023-03-01T14:41:34;14.40;1.00
1137;DHT22;557;48.466;7.950;2023-03-01T14:44:24;14.20;1.00
1137;DHT22;557;48.466;7.950;2023-03-01T14:47:12;13.70;1.00
1137;DHT22;557;48.466;7.950;2023-03-01T14:50:06;13.40;1.00
1137;DHT22;557;48.466;7.950;2023-03-01T14:52:56;13.00;1.00
1137;DHT22;557;48.466;7.950;2023-03-01T14:55:46;13.00;1.00
1137;DHT22;557;48.466;7.950;2023-03-01T14:58:34;13.00;1.00
1137;DHT22;557;48.466;7.950;2023-03-01T15:01:22;12.90;1.00
1137;DHT22;557;48.466;7.950;2023-03-01T15:04:12;12.60;1.00
1137;DHT22;557;48.466;7.950;2023-03-01T15:07:01;12.50;1.00
1137;DHT22;557;48.466;7.950;2023-03-01T15:09:50;12.70;1.00
1137;DHT22;557;48.466;7.950;2023-03-01T15:12:40;12.70;1.00
1137;DHT22;557;48.466;7.950;2023-03-01T15:15:36;12.60;1.00
1137;DHT22;557;48.466;7.950;2023-03-01T15:18:27;12.50;1.00
1137;DHT22;557;48.466;7.950;2023-03-01T15:21:19;12.10;1.00
1137;DHT22;557;48.466;7.950;2023-03-01T15:24:17;12.00;1.00
1137;DHT22;557;48.466;7.950;2023-03-01T15:27:14;11.90;1.00
1137;DHT22;557;48.466;7.950;2023-03-01T15:30:05;11.80;1.00
1137;DHT22;557;48.466;7.950;2023-03-01T15:33:17;11.60;1.00
1137;DHT22;557;48.466;7.950;2023-03-01T15:36:40;11.40;1.00
1137;DHT22;557;48.466;7.950;2023-03-01T15:39:54;11.10;1.00
1137;DHT22;557;48.466;7.950;2023-03-01T15:42:41;10.70;1.00
1137;DHT22;557;48.466;7.950;2023-03-01T15:45:29;10.40;1.00
1137;DHT22;557;48.466;7.950;2023-03-01T15:48:18;10.10;1.00
1137;DHT22;557;48.466;7.950;2023-03-01T15:51:11;9.70;1.00
1137;DHT22;557;48.466;7.950;2023-03-01T15:54:05;9.30;1.00
1137;DHT22;557;48.466;7.950;2023-03-01T15:56:54;9.00;1.00
1137;DHT22;557;48.466;7.950;2023-03-01T15:59:42;8.90;1.00
1137;DHT22;557;48.466;7.950;2023-03-01T16:02:30;9.00;1.00
1137;DHT22;557;48.466;7.950;2023-03-01T16:05:20;8.70;1.00
1137;DHT22;557;48.466;7.950;2023-03-01T16:08:08;8.40;1.00
1137;DHT22;557;48.466;7.950;2023-03-01T16:10:56;8.20;1.00
1137;DHT22;557;48.466;7.950;2023-03-01T16:13:45;8.10;1.00
1137;DHT22;557;48.466;7.950;2023-03-01T16:16:32;8.00;1.00
1137;DHT22;557;48.466;7.950;2023-03-01T16:19:21;7.90;1.00
1137;DHT22;557;48.466;7.950;2023-03-01T16:22:10;7.80;1.00
1137;DHT22;557;48.466;7.950;2023-03-01T16:24:57;7.80;1.00
1137;DHT22;557;48.466;7.950;2023-03-01T16:27:46;7.50;1.00
1137;DHT22;557;48.466;7.950;2023-03-01T16:30:35;7.50;1.00
1137;DHT22;557;48.466;7.950;2023-03-01T16:33:22;7.40;1.00
1137;DHT22;557;48.466;7.950;2023-03-01T16:36:11;7.30;1.00
1137;DHT22;557;48.466;7.950;2023-03-01T16:38:59;7.30;1.00
1137;DHT22;557;48.466;7.950;2023-03-01T16:41:48;7.20;1.00
1137;DHT22;557;48.466;7.950;2023-03-01T16:44:36;7.20;1.00
1137;DHT22;557;48.466;7.950;2023-03-01T16:47:25;7.10;1.00
1137;DHT22;557;48.466;7.950;2023-03-01T16:50:12;7.10;1.00
1137;DHT22;557;48.466;7.950;2023-03-01T16:52:59;6.90;1.40
1137;DHT22;557;48.466;7.950;2023-03-01T16:55:53;6.80;2.70
1137;DHT22;557;48.466;7.950;2023-03-01T16:58:41;6.70;5.80
1137;DHT22;557;48.466;7.950;2023-03-01T17:01:28;6.60;8.20
1137;DHT22;557;48.466;7.950;2023-03-01T17:04:24;6.60;10.90
1137;DHT22;557;48.466;7.950;2023-03-01T17:07:11;6.50;16.90
1137;DHT22;557;48.466;7.950;2023-03-01T17:10:00;6.40;18.20
1137;DHT22;557;48.466;7.950;2023-03-01T17:12:48;6.40;20.30
1137;DHT22;557;48.466;7.950;2023-03-01T17:15:38;6.30;22.50
1137;DHT22;557;48.466;7.950;2023-03-01T17:18:25;6.20;25.00
1137;DHT22;557;48.466;7.950;2023-03-01T17:21:15;6.10;29.30
1137;DHT22;557;48.466;7.950;2023-03-01T17:24:03;6.10;32.20
1137;DHT22;557;48.466;7.950;2023-03-01T17:26:50;6.00;30.40
1137;DHT22;557;48.466;7.950;2023-03-01T17:29:38;5.90;37.90
1137;DHT22;557;48.466;7.950;2023-03-01T17:32:26;5.80;48.20
1137;DHT22;557;48.466;7.950;2023-03-01T17:35:13;5.80;53.10
1137;DHT22;557;48.466;7.950;2023-03-01T17:38:02;5.70;54.90
1137;DHT22;557;48.466;7.950;2023-03-01T17:40:49;5.60;74.10
1137;DHT22;557;48.466;7.950;2023-03-01T17:43:37;5.50;80.20
1137;DHT22;557;48.466;7.950;2023-03-01T17:46:24;5.50;94.10
1137;DHT22;557;48.466;7.950;2023-03-01T17:49:15;5.40;94.60
1137;DHT22;557;48.466;7.950;2023-03-01T17:52:03;5.40;97.20
1137;DHT22;557;48.466;7.950;2023-03-01T17:54:52;5.30;96.70
1137;DHT22;557;48.466;7.950;2023-03-01T17:57:39;5.20;99.90
1137;DHT22;557;48.466;7.950;2023-03-01T18:00:27;5.20;99.90
1137;DHT22;557;48.466;7.950;2023-03-01T18:03:15;5.10;99.90
1137;DHT22;557;48.466;7.950;2023-03-01T18:06:09;5.10;99.90
1137;DHT22;557;48.466;7.950;2023-03-01T18:08:57;5.00;99.90
1137;DHT22;557;48.466;7.950;2023-03-01T18:11:45;5.00;99.90
1137;DHT22;557;48.466;7.950;2023-03-01T18:14:33;4.90;99.90
1137;DHT22;557;48.466;7.950;2023-03-01T18:17:21;4.80;99.90
1137;DHT22;557;48.466;7.950;2023-03-01T18:20:10;4.80;99.90
1137;DHT22;557;48.466;7.950;2023-03-01T18:22:58;4.70;99.90
1137;DHT22;557;48.466;7.950;2023-03-01T18:25:45;4.70;99.90
1137;DHT22;557;48.466;7.950;2023-03-01T18:28:34;4.60;99.90
1137;DHT22;557;48.466;7.950;2023-03-01T18:31:22;4.50;99.90
1137;DHT22;557;48.466;7.950;2023-03-01T18:34:10;4.40;99.90
1137;DHT22;557;48.466;7.950;2023-03-01T18:36:58;4.30;99.90
1137;DHT22;557;48.466;7.950;2023-03-01T18:39:48;4.30;99.90
1137;DHT22;557;48.466;7.950;2023-03-01T18:42:36;4.20;99.90
1137;DHT22;557;48.466;7.950;2023-03-01T18:45:25;4.10;99.90
1137;DHT22;557;48.466;7.950;2023-03-01T18:48:13;4.10;99.90
1137;DHT22;557;48.466;7.950;2023-03-01T18:51:07;4.10;99.90
1137;DHT22;557;48.466;7.950;2023-03-01T18:53:55;4.10;99.90
1137;DHT22;557;48.466;7.950;2023-03-01T18:56:43;4.00;99.90
1137;DHT22;557;48.466;7.950;2023-03-01T18:59:31;4.00;99.90
1137;DHT22;557;48.466;7.950;2023-03-01T19:02:20;3.90;99.90
1137;DHT22;557;48.466;7.950;2023-03-01T19:05:08;3.90;99.90
1137;DHT22;557;48.466;7.950;2023-03-01T19:07:55;3.90;99.90
1137;DHT22;557;48.466;7.950;2023-03-01T19:10:43;3.80;99.90
1137;DHT22;557;48.466;7.950;2023-03-01T19:13:31;3.80;99.90
1137;DHT22;557;48.466;7.950;2023-03-01T19:16:21;3.70;99.90
1137;DHT22;557;48.466;7.950;2023-03-01T19:19:11;3.60;99.90
1137;DHT22;557;48.466;7.950;2023-03-01T19:21:58;3.60;99.90
1137;DHT22;557;48.466;7.950;2023-03-01T19:24:45;3.50;99.90
1137;DHT22;557;48.466;7.950;2023-03-01T19:27:33;3.50;1.00